<?xml version="1.0" encoding="UTF-8"?>
<gpx  version="1.1"  creator="Verlag Esterbauer" xmlns:xsi="http://www.w3.org/2001/XMLSchema-instance" xmlns="http://www.topografix.com/GPX/1/1"  xsi:schemaLocation="http://www.topografix.com/GPX/1/1 http://www.topografix.com/GPX/1/1/gpx.xsd">
<trk>
  <name>wf-gran_T33</name>
  <trkseg>
    <trkpt lat="27.912827" lon="-15.541702">
    <time>1971-01-13T12:01:19Z</time>
    </trkpt>
    <trkpt lat="27.912917" lon="-15.541633">
    <time>1971-01-13T12:01:30Z</time>
  <cmt>extensions = 1.61</cmt>
    </trkpt>
    <trkpt lat="27.912937" lon="-15.541577">
    <time>1971-01-13T12:01:35Z</time>
  <cmt>extensions = 1.98</cmt>
    </trkpt>
    <trkpt lat="27.912983" lon="-15.541379">
    <time>1971-01-13T12:01:53Z</time>
  <cmt>extensions = 1.55</cmt>
    </trkpt>
    <trkpt lat="27.913002" lon="-15.541252">
    <time>1971-01-13T12:02:05Z</time>
  <cmt>extensions = 0.45</cmt>
    </trkpt>
    <trkpt lat="27.913065" lon="-15.541136">
    <time>1971-01-13T12:02:17Z</time>
  <cmt>extensions = 0.84</cmt>
    </trkpt>
    <trkpt lat="27.913129" lon="-15.541058">
    <time>1971-01-13T12:02:26Z</time>
  <cmt>extensions = 0.07</cmt>
    </trkpt>
    <trkpt lat="27.913183" lon="-15.540971">
    <time>1971-01-13T12:02:35Z</time>
  <cmt>extensions = 1.49</cmt>
    </trkpt>
    <trkpt lat="27.913336" lon="-15.540683">
    <time>1971-01-13T12:03:05Z</time>
  <cmt>extensions = 0.71</cmt>
    </trkpt>
    <trkpt lat="27.913276" lon="-15.540699">
    <time>1971-01-13T12:03:11Z</time>
  <cmt>extensions = 0.06</cmt>
    </trkpt>
    <trkpt lat="27.913325" lon="-15.540691">
    <time>1971-01-13T12:03:16Z</time>
  <cmt>extensions = 0.10</cmt>
    </trkpt>
    <trkpt lat="27.913502" lon="-15.540821">
    <time>1971-01-13T12:03:37Z</time>
  <cmt>extensions = 0.94</cmt>
    </trkpt>
    <trkpt lat="27.913594" lon="-15.540853">
    <time>1971-01-13T12:03:47Z</time>
  <cmt>extensions = 0.67</cmt>
    </trkpt>
    <trkpt lat="27.913565" lon="-15.540941">
    <time>1971-01-13T12:03:55Z</time>
  <cmt>extensions = 0.58</cmt>
    </trkpt>
    <trkpt lat="27.913567" lon="-15.541032">
    <time>1971-01-13T12:04:03Z</time>
  <cmt>extensions = 0.36</cmt>
    </trkpt>
    <trkpt lat="27.913625" lon="-15.541116">
    <time>1971-01-13T12:04:13Z</time>
  <cmt>extensions = 0.75</cmt>
    </trkpt>
    <trkpt lat="27.913698" lon="-15.541021">
    <time>1971-01-13T12:04:24Z</time>
  <cmt>extensions = 0.46</cmt>
    </trkpt>
    <trkpt lat="27.913748" lon="-15.541054">
    <time>1971-01-13T12:04:30Z</time>
  <cmt>extensions = 0.43</cmt>
    </trkpt>
    <trkpt lat="27.913802" lon="-15.541081">
    <time>1971-01-13T12:04:35Z</time>
  <cmt>extensions = 0.23</cmt>
    </trkpt>
    <trkpt lat="27.913928" lon="-15.541185">
    <time>1971-01-13T12:04:51Z</time>
  <cmt>extensions = 0.65</cmt>
    </trkpt>
    <trkpt lat="27.913946" lon="-15.54124">
    <time>1971-01-13T12:04:56Z</time>
  <cmt>extensions = 0.36</cmt>
    </trkpt>
    <trkpt lat="27.91399" lon="-15.541206">
    <time>1971-01-13T12:05:02Z</time>
  <cmt>extensions = 0.35</cmt>
    </trkpt>
    <trkpt lat="27.913938" lon="-15.541304">
    <time>1971-01-13T12:05:12Z</time>
  <cmt>extensions = 0.61</cmt>
    </trkpt>
    <trkpt lat="27.913984" lon="-15.541362">
    <time>1971-01-13T12:05:19Z</time>
  <cmt>extensions = 0.07</cmt>
    </trkpt>
    <trkpt lat="27.914002" lon="-15.541483">
    <time>1971-01-13T12:05:29Z</time>
  <cmt>extensions = 0.80</cmt>
    </trkpt>
    <trkpt lat="27.913985" lon="-15.541585">
    <time>1971-01-13T12:05:39Z</time>
  <cmt>extensions = 0.85</cmt>
    </trkpt>
    <trkpt lat="27.914026" lon="-15.541632">
    <time>1971-01-13T12:05:44Z</time>
  <cmt>extensions = 0.46</cmt>
    </trkpt>
    <trkpt lat="27.914062" lon="-15.54157">
    <time>1971-01-13T12:05:51Z</time>
  <cmt>extensions = 0.46</cmt>
    </trkpt>
    <trkpt lat="27.914099" lon="-15.541481">
    <time>1971-01-13T12:06:00Z</time>
  <cmt>extensions = 0.88</cmt>
    </trkpt>
    <trkpt lat="27.914128" lon="-15.541329">
    <time>1971-01-13T12:06:13Z</time>
  <cmt>extensions = 1.02</cmt>
    </trkpt>
    <trkpt lat="27.914224" lon="-15.541228">
    <time>1971-01-13T12:06:26Z</time>
  <cmt>extensions = 0.56</cmt>
    </trkpt>
    <trkpt lat="27.914288" lon="-15.541181">
    <time>1971-01-13T12:06:34Z</time>
  <cmt>extensions = 0.57</cmt>
    </trkpt>
    <trkpt lat="27.914342" lon="-15.541079">
    <time>1971-01-13T12:06:45Z</time>
  <cmt>extensions = 0.69</cmt>
    </trkpt>
    <trkpt lat="27.91439" lon="-15.540964">
    <time>1971-01-13T12:06:56Z</time>
  <cmt>extensions = 0.96</cmt>
    </trkpt>
    <trkpt lat="27.914362" lon="-15.540681">
    <time>1971-01-13T12:07:21Z</time>
  <cmt>extensions = 0.46</cmt>
    </trkpt>
    <trkpt lat="27.914421" lon="-15.540564">
    <time>1971-01-13T12:07:33Z</time>
  <cmt>extensions = 1.09</cmt>
    </trkpt>
    <trkpt lat="27.914515" lon="-15.540556">
    <time>1971-01-13T12:07:42Z</time>
  <cmt>extensions = 0.66</cmt>
    </trkpt>
    <trkpt lat="27.914582" lon="-15.540565">
    <time>1971-01-13T12:07:49Z</time>
  <cmt>extensions = 0.54</cmt>
    </trkpt>
    <trkpt lat="27.91477" lon="-15.540544">
    <time>1971-01-13T12:08:08Z</time>
  <cmt>extensions = 0.89</cmt>
    </trkpt>
    <trkpt lat="27.914895" lon="-15.540526">
    <time>1971-01-13T12:08:20Z</time>
  <cmt>extensions = 0.79</cmt>
    </trkpt>
    <trkpt lat="27.914954" lon="-15.540502">
    <time>1971-01-13T12:08:27Z</time>
  <cmt>extensions = 0.63</cmt>
    </trkpt>
    <trkpt lat="27.915043" lon="-15.540481">
    <time>1971-01-13T12:08:36Z</time>
  <cmt>extensions = 0.67</cmt>
    </trkpt>
    <trkpt lat="27.915089" lon="-15.540452">
    <time>1971-01-13T12:08:41Z</time>
  <cmt>extensions = 0.39</cmt>
    </trkpt>
    <trkpt lat="27.91517" lon="-15.540364">
    <time>1971-01-13T12:08:52Z</time>
  <cmt>extensions = 0.85</cmt>
    </trkpt>
    <trkpt lat="27.915209" lon="-15.540201">
    <time>1971-01-13T12:09:07Z</time>
  <cmt>extensions = 1.19</cmt>
    </trkpt>
    <trkpt lat="27.915332" lon="-15.540142">
    <time>1971-01-13T12:09:20Z</time>
  <cmt>extensions = 0.88</cmt>
    </trkpt>
    <trkpt lat="27.915403" lon="-15.540132">
    <time>1971-01-13T12:09:28Z</time>
  <cmt>extensions = 1.00</cmt>
    </trkpt>
    <trkpt lat="27.915556" lon="-15.540135">
    <time>1971-01-13T12:09:43Z</time>
  <cmt>extensions = 1.22</cmt>
    </trkpt>
    <trkpt lat="27.915716" lon="-15.540043">
    <time>1971-01-13T12:10:01Z</time>
  <cmt>extensions = 1.12</cmt>
    </trkpt>
    <trkpt lat="27.915803" lon="-15.539941">
    <time>1971-01-13T12:10:13Z</time>
  <cmt>extensions = 1.07</cmt>
    </trkpt>
    <trkpt lat="27.915875" lon="-15.53983">
    <time>1971-01-13T12:10:25Z</time>
  <cmt>extensions = 1.13</cmt>
    </trkpt>
    <trkpt lat="27.915919" lon="-15.539642">
    <time>1971-01-13T12:10:43Z</time>
  <cmt>extensions = 1.28</cmt>
    </trkpt>
    <trkpt lat="27.916079" lon="-15.539436">
    <time>1971-01-13T12:11:07Z</time>
  <cmt>extensions = 0.97</cmt>
    </trkpt>
    <trkpt lat="27.916184" lon="-15.539365">
    <time>1971-01-13T12:11:19Z</time>
  <cmt>extensions = 1.13</cmt>
    </trkpt>
    <trkpt lat="27.91626" lon="-15.539417">
    <time>1971-01-13T12:11:28Z</time>
  <cmt>extensions = 0.76</cmt>
    </trkpt>
    <trkpt lat="27.916298" lon="-15.539463">
    <time>1971-01-13T12:11:33Z</time>
  <cmt>extensions = 0.65</cmt>
    </trkpt>
    <trkpt lat="27.916346" lon="-15.539607">
    <time>1971-01-13T12:11:47Z</time>
  <cmt>extensions = 0.95</cmt>
    </trkpt>
    <trkpt lat="27.916382" lon="-15.539688">
    <time>1971-01-13T12:11:55Z</time>
  <cmt>extensions = 1.49</cmt>
    </trkpt>
    <trkpt lat="27.916405" lon="-15.539752">
    <time>1971-01-13T12:12:01Z</time>
  <cmt>extensions = 1.09</cmt>
    </trkpt>
    <trkpt lat="27.916496" lon="-15.539875">
    <time>1971-01-13T12:12:15Z</time>
  <cmt>extensions = 1.13</cmt>
    </trkpt>
    <trkpt lat="27.916571" lon="-15.539906">
    <time>1971-01-13T12:12:23Z</time>
  <cmt>extensions = 0.68</cmt>
    </trkpt>
    <trkpt lat="27.916709" lon="-15.539896">
    <time>1971-01-13T12:12:37Z</time>
  <cmt>extensions = 0.96</cmt>
    </trkpt>
    <trkpt lat="27.916887" lon="-15.539871">
    <time>1971-01-13T12:12:55Z</time>
  <cmt>extensions = 1.25</cmt>
    </trkpt>
    <trkpt lat="27.916944" lon="-15.539877">
    <time>1971-01-13T12:13:01Z</time>
  <cmt>extensions = 1.06</cmt>
    </trkpt>
    <trkpt lat="27.917334" lon="-15.539779">
    <time>1971-01-13T12:13:41Z</time>
  <cmt>extensions = 1.29</cmt>
    </trkpt>
    <trkpt lat="27.917397" lon="-15.539825">
    <time>1971-01-13T12:13:48Z</time>
  <cmt>extensions = 0.65</cmt>
    </trkpt>
    <trkpt lat="27.917558" lon="-15.539808">
    <time>1971-01-13T12:14:04Z</time>
  <cmt>extensions = 0.32</cmt>
    </trkpt>
    <trkpt lat="27.917605" lon="-15.539783">
    <time>1971-01-13T12:14:09Z</time>
  <cmt>extensions = 1.16</cmt>
    </trkpt>
    <trkpt lat="27.917765" lon="-15.539754">
    <time>1971-01-13T12:14:25Z</time>
  <cmt>extensions = 1.29</cmt>
    </trkpt>
    <trkpt lat="27.917923" lon="-15.539754">
    <time>1971-01-13T12:14:41Z</time>
  <cmt>extensions = 1.26</cmt>
    </trkpt>
    <trkpt lat="27.918028" lon="-15.53982">
    <time>1971-01-13T12:14:53Z</time>
  <cmt>extensions = 1.11</cmt>
    </trkpt>
    <trkpt lat="27.918028" lon="-15.539946">
    <time>1971-01-13T12:15:04Z</time>
  <cmt>extensions = 1.13</cmt>
    </trkpt>
    <trkpt lat="27.918002" lon="-15.540055">
    <time>1971-01-13T12:15:14Z</time>
  <cmt>extensions = 1.39</cmt>
    </trkpt>
    <trkpt lat="27.918005" lon="-15.540132">
    <time>1971-01-13T12:15:21Z</time>
  <cmt>extensions = 1.08</cmt>
    </trkpt>
    <trkpt lat="27.918026" lon="-15.54025">
    <time>1971-01-13T12:15:32Z</time>
  <cmt>extensions = 0.99</cmt>
    </trkpt>
    <trkpt lat="27.918057" lon="-15.540311">
    <time>1971-01-13T12:15:38Z</time>
  <cmt>extensions = 0.43</cmt>
    </trkpt>
    <trkpt lat="27.918178" lon="-15.540502">
    <time>1971-01-13T12:15:59Z</time>
  <cmt>extensions = 1.56</cmt>
    </trkpt>
    <trkpt lat="27.918218" lon="-15.540576">
    <time>1971-01-13T12:16:06Z</time>
  <cmt>extensions = 1.42</cmt>
    </trkpt>
    <trkpt lat="27.918289" lon="-15.540684">
    <time>1971-01-13T12:16:18Z</time>
  <cmt>extensions = 1.03</cmt>
    </trkpt>
    <trkpt lat="27.918331" lon="-15.540738">
    <time>1971-01-13T12:16:25Z</time>
  <cmt>extensions = 0.22</cmt>
    </trkpt>
    <trkpt lat="27.918391" lon="-15.54073">
    <time>1971-01-13T12:16:31Z</time>
  <cmt>extensions = 0.96</cmt>
    </trkpt>
    <trkpt lat="27.918459" lon="-15.540742">
    <time>1971-01-13T12:16:38Z</time>
  <cmt>extensions = 1.28</cmt>
    </trkpt>
    <trkpt lat="27.918517" lon="-15.540758">
    <time>1971-01-13T12:16:43Z</time>
  <cmt>extensions = 1.33</cmt>
    </trkpt>
    <trkpt lat="27.918642" lon="-15.540753">
    <time>1971-01-13T12:16:56Z</time>
  <cmt>extensions = 1.27</cmt>
    </trkpt>
    <trkpt lat="27.918717" lon="-15.540697">
    <time>1971-01-13T12:17:05Z</time>
  <cmt>extensions = 1.00</cmt>
    </trkpt>
    <trkpt lat="27.9188" lon="-15.540619">
    <time>1971-01-13T12:17:16Z</time>
  <cmt>extensions = 1.00</cmt>
    </trkpt>
    <trkpt lat="27.918927" lon="-15.540591">
    <time>1971-01-13T12:17:29Z</time>
  <cmt>extensions = 0.90</cmt>
    </trkpt>
    <trkpt lat="27.918989" lon="-15.540599">
    <time>1971-01-13T12:17:35Z</time>
  <cmt>extensions = 0.53</cmt>
    </trkpt>
    <trkpt lat="27.919076" lon="-15.540656">
    <time>1971-01-13T12:17:45Z</time>
  <cmt>extensions = 1.05</cmt>
    </trkpt>
    <trkpt lat="27.919155" lon="-15.540714">
    <time>1971-01-13T12:17:54Z</time>
  <cmt>extensions = 1.05</cmt>
    </trkpt>
    <trkpt lat="27.919222" lon="-15.540786">
    <time>1971-01-13T12:18:03Z</time>
  <cmt>extensions = 0.94</cmt>
    </trkpt>
    <trkpt lat="27.919237" lon="-15.540894">
    <time>1971-01-13T12:18:13Z</time>
  <cmt>extensions = 1.34</cmt>
    </trkpt>
    <trkpt lat="27.919286" lon="-15.540987">
    <time>1971-01-13T12:18:23Z</time>
  <cmt>extensions = 1.07</cmt>
    </trkpt>
    <trkpt lat="27.919321" lon="-15.541076">
    <time>1971-01-13T12:18:31Z</time>
  <cmt>extensions = 0.96</cmt>
    </trkpt>
    <trkpt lat="27.919415" lon="-15.54115">
    <time>1971-01-13T12:18:43Z</time>
  <cmt>extensions = 1.27</cmt>
    </trkpt>
    <trkpt lat="27.919465" lon="-15.541304">
    <time>1971-01-13T12:18:57Z</time>
  <cmt>extensions = 0.81</cmt>
    </trkpt>
    <trkpt lat="27.919441" lon="-15.541373">
    <time>1971-01-13T12:19:04Z</time>
  <cmt>extensions = 1.38</cmt>
    </trkpt>
    <trkpt lat="27.919444" lon="-15.541466">
    <time>1971-01-13T12:19:12Z</time>
  <cmt>extensions = 0.70</cmt>
    </trkpt>
    <trkpt lat="27.919404" lon="-15.541556">
    <time>1971-01-13T12:19:21Z</time>
  <cmt>extensions = 1.10</cmt>
    </trkpt>
    <trkpt lat="27.91943" lon="-15.541651">
    <time>1971-01-13T12:19:30Z</time>
  <cmt>extensions = 0.89</cmt>
    </trkpt>
    <trkpt lat="27.91942" lon="-15.54178">
    <time>1971-01-13T12:19:41Z</time>
  <cmt>extensions = 0.81</cmt>
    </trkpt>
    <trkpt lat="27.919341" lon="-15.541895">
    <time>1971-01-13T12:19:54Z</time>
  <cmt>extensions = 0.68</cmt>
    </trkpt>
    <trkpt lat="27.919253" lon="-15.541981">
    <time>1971-01-13T12:20:06Z</time>
  <cmt>extensions = 0.78</cmt>
    </trkpt>
    <trkpt lat="27.919264" lon="-15.542051">
    <time>1971-01-13T12:20:12Z</time>
  <cmt>extensions = 0.44</cmt>
    </trkpt>
    <trkpt lat="27.919361" lon="-15.542168">
    <time>1971-01-13T12:20:26Z</time>
  <cmt>extensions = 1.00</cmt>
    </trkpt>
    <trkpt lat="27.919351" lon="-15.542232">
    <time>1971-01-13T12:20:32Z</time>
  <cmt>extensions = 0.30</cmt>
    </trkpt>
    <trkpt lat="27.919361" lon="-15.542492">
    <time>1971-01-13T12:20:55Z</time>
  <cmt>extensions = 1.12</cmt>
    </trkpt>
    <trkpt lat="27.919397" lon="-15.542542">
    <time>1971-01-13T12:21:01Z</time>
  <cmt>extensions = 1.48</cmt>
    </trkpt>
    <trkpt lat="27.919509" lon="-15.54264">
    <time>1971-01-13T12:21:15Z</time>
  <cmt>extensions = 1.05</cmt>
    </trkpt>
    <trkpt lat="27.919554" lon="-15.542668">
    <time>1971-01-13T12:21:20Z</time>
  <cmt>extensions = 1.53</cmt>
    </trkpt>
    <trkpt lat="27.919592" lon="-15.542709">
    <time>1971-01-13T12:21:25Z</time>
  <cmt>extensions = 1.04</cmt>
    </trkpt>
    <trkpt lat="27.919625" lon="-15.542754">
    <time>1971-01-13T12:21:30Z</time>
  <cmt>extensions = 1.15</cmt>
    </trkpt>
    <trkpt lat="27.919739" lon="-15.542819">
    <time>1971-01-13T12:21:43Z</time>
  <cmt>extensions = 1.18</cmt>
    </trkpt>
    <trkpt lat="27.919784" lon="-15.542861">
    <time>1971-01-13T12:21:49Z</time>
  <cmt>extensions = 0.50</cmt>
    </trkpt>
    <trkpt lat="27.919983" lon="-15.542929">
    <time>1971-01-13T12:22:09Z</time>
  <cmt>extensions = 1.54</cmt>
    </trkpt>
    <trkpt lat="27.920023" lon="-15.542966">
    <time>1971-01-13T12:22:15Z</time>
  <cmt>extensions = 1.92</cmt>
    </trkpt>
    <trkpt lat="27.920051" lon="-15.543059">
    <time>1971-01-13T12:22:23Z</time>
  <cmt>extensions = 1.38</cmt>
    </trkpt>
    <trkpt lat="27.920122" lon="-15.543156">
    <time>1971-01-13T12:22:34Z</time>
  <cmt>extensions = 1.25</cmt>
    </trkpt>
    <trkpt lat="27.920245" lon="-15.543242">
    <time>1971-01-13T12:22:49Z</time>
  <cmt>extensions = 1.34</cmt>
    </trkpt>
    <trkpt lat="27.920357" lon="-15.543337">
    <time>1971-01-13T12:23:03Z</time>
  <cmt>extensions = 0.98</cmt>
    </trkpt>
    <trkpt lat="27.920483" lon="-15.543383">
    <time>1971-01-13T12:23:16Z</time>
  <cmt>extensions = 1.34</cmt>
    </trkpt>
    <trkpt lat="27.920583" lon="-15.543454">
    <time>1971-01-13T12:23:28Z</time>
  <cmt>extensions = 1.02</cmt>
    </trkpt>
    <trkpt lat="27.920602" lon="-15.543616">
    <time>1971-01-13T12:23:42Z</time>
  <cmt>extensions = 1.24</cmt>
    </trkpt>
    <trkpt lat="27.920637" lon="-15.543749">
    <time>1971-01-13T12:23:55Z</time>
  <cmt>extensions = 1.39</cmt>
    </trkpt>
    <trkpt lat="27.92066" lon="-15.543853">
    <time>1971-01-13T12:24:04Z</time>
  <cmt>extensions = 1.38</cmt>
    </trkpt>
    <trkpt lat="27.920686" lon="-15.543904">
    <time>1971-01-13T12:24:09Z</time>
  <cmt>extensions = 1.16</cmt>
    </trkpt>
    <trkpt lat="27.9206" lon="-15.544139">
    <time>1971-01-13T12:24:32Z</time>
  <cmt>extensions = 1.67</cmt>
    </trkpt>
    <trkpt lat="27.920559" lon="-15.544294">
    <time>1971-01-13T12:24:46Z</time>
  <cmt>extensions = 1.14</cmt>
    </trkpt>
    <trkpt lat="27.920663" lon="-15.544466">
    <time>1971-01-13T12:25:04Z</time>
  <cmt>extensions = 1.47</cmt>
    </trkpt>
    <trkpt lat="27.920698" lon="-15.544505">
    <time>1971-01-13T12:25:09Z</time>
  <cmt>extensions = 1.09</cmt>
    </trkpt>
    <trkpt lat="27.920751" lon="-15.544594">
    <time>1971-01-13T12:25:19Z</time>
  <cmt>extensions = 0.99</cmt>
    </trkpt>
    <trkpt lat="27.920871" lon="-15.544746">
    <time>1971-01-13T12:25:37Z</time>
  <cmt>extensions = 1.60</cmt>
    </trkpt>
    <trkpt lat="27.920925" lon="-15.544785">
    <time>1971-01-13T12:25:43Z</time>
  <cmt>extensions = 1.43</cmt>
    </trkpt>
    <trkpt lat="27.920981" lon="-15.544811">
    <time>1971-01-13T12:25:49Z</time>
  <cmt>extensions = 1.12</cmt>
    </trkpt>
    <trkpt lat="27.920993" lon="-15.544862">
    <time>1971-01-13T12:25:54Z</time>
  <cmt>extensions = 1.30</cmt>
    </trkpt>
    <trkpt lat="27.921031" lon="-15.544896">
    <time>1971-01-13T12:25:59Z</time>
  <cmt>extensions = 1.35</cmt>
    </trkpt>
    <trkpt lat="27.921112" lon="-15.545033">
    <time>1971-01-13T12:26:13Z</time>
  <cmt>extensions = 1.07</cmt>
    </trkpt>
    <trkpt lat="27.921145" lon="-15.545138">
    <time>1971-01-13T12:26:23Z</time>
  <cmt>extensions = 1.22</cmt>
    </trkpt>
    <trkpt lat="27.921156" lon="-15.545353">
    <time>1971-01-13T12:26:42Z</time>
  <cmt>extensions = 1.19</cmt>
    </trkpt>
    <trkpt lat="27.921172" lon="-15.545416">
    <time>1971-01-13T12:26:48Z</time>
  <cmt>extensions = 1.61</cmt>
    </trkpt>
    <trkpt lat="27.921247" lon="-15.545539">
    <time>1971-01-13T12:27:01Z</time>
  <cmt>extensions = 1.02</cmt>
    </trkpt>
    <trkpt lat="27.921314" lon="-15.545671">
    <time>1971-01-13T12:27:15Z</time>
  <cmt>extensions = 0.94</cmt>
    </trkpt>
    <trkpt lat="27.921407" lon="-15.545702">
    <time>1971-01-13T12:27:24Z</time>
  <cmt>extensions = 0.72</cmt>
    </trkpt>
    <trkpt lat="27.921455" lon="-15.545724">
    <time>1971-01-13T12:27:29Z</time>
  <cmt>extensions = 1.15</cmt>
    </trkpt>
    <trkpt lat="27.921526" lon="-15.545735">
    <time>1971-01-13T12:27:37Z</time>
  <cmt>extensions = 1.15</cmt>
    </trkpt>
    <trkpt lat="27.92164" lon="-15.545805">
    <time>1971-01-13T12:27:50Z</time>
  <cmt>extensions = 1.11</cmt>
    </trkpt>
    <trkpt lat="27.921705" lon="-15.545903">
    <time>1971-01-13T12:28:00Z</time>
  <cmt>extensions = 1.19</cmt>
    </trkpt>
    <trkpt lat="27.921847" lon="-15.54599">
    <time>1971-01-13T12:28:16Z</time>
  <cmt>extensions = 1.28</cmt>
    </trkpt>
    <trkpt lat="27.921888" lon="-15.546084">
    <time>1971-01-13T12:28:26Z</time>
  <cmt>extensions = 1.47</cmt>
    </trkpt>
    <trkpt lat="27.921992" lon="-15.546161">
    <time>1971-01-13T12:28:38Z</time>
  <cmt>extensions = 0.99</cmt>
    </trkpt>
    <trkpt lat="27.92214" lon="-15.546215">
    <time>1971-01-13T12:28:54Z</time>
  <cmt>extensions = 1.33</cmt>
    </trkpt>
    <trkpt lat="27.922191" lon="-15.546262">
    <time>1971-01-13T12:29:00Z</time>
  <cmt>extensions = 1.46</cmt>
    </trkpt>
    <trkpt lat="27.922233" lon="-15.546289">
    <time>1971-01-13T12:29:05Z</time>
  <cmt>extensions = 1.34</cmt>
    </trkpt>
    <trkpt lat="27.922305" lon="-15.546319">
    <time>1971-01-13T12:29:13Z</time>
  <cmt>extensions = 1.22</cmt>
    </trkpt>
    <trkpt lat="27.922464" lon="-15.546343">
    <time>1971-01-13T12:29:29Z</time>
  <cmt>extensions = 1.37</cmt>
    </trkpt>
    <trkpt lat="27.92254" lon="-15.546363">
    <time>1971-01-13T12:29:36Z</time>
  <cmt>extensions = 1.24</cmt>
    </trkpt>
    <trkpt lat="27.922678" lon="-15.546324">
    <time>1971-01-13T12:29:51Z</time>
  <cmt>extensions = 1.44</cmt>
    </trkpt>
    <trkpt lat="27.92281" lon="-15.546259">
    <time>1971-01-13T12:30:05Z</time>
  <cmt>extensions = 1.46</cmt>
    </trkpt>
    <trkpt lat="27.922984" lon="-15.546248">
    <time>1971-01-13T12:30:22Z</time>
  <cmt>extensions = 1.21</cmt>
    </trkpt>
    <trkpt lat="27.923054" lon="-15.546329">
    <time>1971-01-13T12:30:32Z</time>
  <cmt>extensions = 1.30</cmt>
    </trkpt>
    <trkpt lat="27.92312" lon="-15.546359">
    <time>1971-01-13T12:30:39Z</time>
  <cmt>extensions = 1.32</cmt>
    </trkpt>
    <trkpt lat="27.923187" lon="-15.546408">
    <time>1971-01-13T12:30:47Z</time>
  <cmt>extensions = 1.27</cmt>
    </trkpt>
    <trkpt lat="27.923289" lon="-15.546544">
    <time>1971-01-13T12:31:03Z</time>
  <cmt>extensions = 1.29</cmt>
    </trkpt>
    <trkpt lat="27.923517" lon="-15.54677">
    <time>1971-01-13T12:31:33Z</time>
  <cmt>extensions = 1.03</cmt>
    </trkpt>
    <trkpt lat="27.92357" lon="-15.546794">
    <time>1971-01-13T12:31:39Z</time>
  <cmt>extensions = 0.79</cmt>
    </trkpt>
    <trkpt lat="27.92362" lon="-15.546872">
    <time>1971-01-13T12:31:48Z</time>
  <cmt>extensions = 1.05</cmt>
    </trkpt>
    <trkpt lat="27.923616" lon="-15.54693">
    <time>1971-01-13T12:31:53Z</time>
  <cmt>extensions = 1.43</cmt>
    </trkpt>
    <trkpt lat="27.923706" lon="-15.546991">
    <time>1971-01-13T12:32:03Z</time>
  <cmt>extensions = 1.17</cmt>
    </trkpt>
    <trkpt lat="27.923799" lon="-15.547097">
    <time>1971-01-13T12:32:16Z</time>
  <cmt>extensions = 1.27</cmt>
    </trkpt>
    <trkpt lat="27.923992" lon="-15.547236">
    <time>1971-01-13T12:32:39Z</time>
  <cmt>extensions = 0.99</cmt>
    </trkpt>
    <trkpt lat="27.923964" lon="-15.547354">
    <time>1971-01-13T12:32:50Z</time>
  <cmt>extensions = 0.80</cmt>
    </trkpt>
    <trkpt lat="27.924054" lon="-15.547409">
    <time>1971-01-13T12:33:00Z</time>
  <cmt>extensions = 0.71</cmt>
    </trkpt>
    <trkpt lat="27.924075" lon="-15.547477">
    <time>1971-01-13T12:33:07Z</time>
  <cmt>extensions = 0.89</cmt>
    </trkpt>
    <trkpt lat="27.924127" lon="-15.547618">
    <time>1971-01-13T12:33:20Z</time>
  <cmt>extensions = 1.56</cmt>
    </trkpt>
    <trkpt lat="27.924206" lon="-15.547746">
    <time>1971-01-13T12:33:34Z</time>
  <cmt>extensions = 1.20</cmt>
    </trkpt>
    <trkpt lat="27.924227" lon="-15.547816">
    <time>1971-01-13T12:33:40Z</time>
  <cmt>extensions = 0.52</cmt>
    </trkpt>
    <trkpt lat="27.92444" lon="-15.548278">
    <time>1971-01-13T12:34:27Z</time>
  <cmt>extensions = 1.18</cmt>
    </trkpt>
    <trkpt lat="27.924455" lon="-15.548345">
    <time>1971-01-13T12:34:33Z</time>
  <cmt>extensions = 0.49</cmt>
    </trkpt>
    <trkpt lat="27.924507" lon="-15.548384">
    <time>1971-01-13T12:34:39Z</time>
  <cmt>extensions = 0.28</cmt>
    </trkpt>
    <trkpt lat="27.924541" lon="-15.548428">
    <time>1971-01-13T12:34:44Z</time>
  <cmt>extensions = 0.03</cmt>
    </trkpt>
    <trkpt lat="27.924939" lon="-15.548658">
    <time>1971-01-13T12:35:29Z</time>
  <cmt>extensions = 0.94</cmt>
    </trkpt>
    <trkpt lat="27.925095" lon="-15.548695">
    <time>1971-01-13T12:35:45Z</time>
  <cmt>extensions = 0.89</cmt>
    </trkpt>
    <trkpt lat="27.925152" lon="-15.548715">
    <time>1971-01-13T12:35:51Z</time>
  <cmt>extensions = 0.47</cmt>
    </trkpt>
    <trkpt lat="27.925269" lon="-15.548744">
    <time>1971-01-13T12:36:02Z</time>
  <cmt>extensions = 1.11</cmt>
    </trkpt>
    <trkpt lat="27.925359" lon="-15.548746">
    <time>1971-01-13T12:36:11Z</time>
  <cmt>extensions = 0.91</cmt>
    </trkpt>
    <trkpt lat="27.925369" lon="-15.548747">
    <time>1971-01-13T12:36:12Z</time>
  <cmt>extensions = 1.12</cmt>
    </trkpt>
    <trkpt lat="27.925405" lon="-15.548766">
    <time>1971-01-13T12:36:16Z</time>
  <cmt>extensions = 1.47</cmt>
    </trkpt>
    <trkpt lat="27.925494" lon="-15.548798">
    <time>1971-01-13T12:36:26Z</time>
  <cmt>extensions = 1.30</cmt>
    </trkpt>
    <trkpt lat="27.925594" lon="-15.548847">
    <time>1971-01-13T12:36:37Z</time>
  <cmt>extensions = 1.01</cmt>
    </trkpt>
    <trkpt lat="27.925681" lon="-15.548856">
    <time>1971-01-13T12:36:45Z</time>
  <cmt>extensions = 0.75</cmt>
    </trkpt>
    <trkpt lat="27.925754" lon="-15.548946">
    <time>1971-01-13T12:36:56Z</time>
  <cmt>extensions = 0.41</cmt>
    </trkpt>
    <trkpt lat="27.925799" lon="-15.548938">
    <time>1971-01-13T12:37:01Z</time>
  <cmt>extensions = 1.27</cmt>
    </trkpt>
    <trkpt lat="27.925979" lon="-15.548885">
    <time>1971-01-13T12:37:19Z</time>
  <cmt>extensions = 1.48</cmt>
    </trkpt>
    <trkpt lat="27.926125" lon="-15.548857">
    <time>1971-01-13T12:37:34Z</time>
  <cmt>extensions = 1.37</cmt>
    </trkpt>
    <trkpt lat="27.926184" lon="-15.548858">
    <time>1971-01-13T12:37:40Z</time>
  <cmt>extensions = 1.31</cmt>
    </trkpt>
    <trkpt lat="27.926289" lon="-15.548852">
    <time>1971-01-13T12:37:50Z</time>
  <cmt>extensions = 0.69</cmt>
    </trkpt>
    <trkpt lat="27.92645" lon="-15.548864">
    <time>1971-01-13T12:38:06Z</time>
  <cmt>extensions = 0.69</cmt>
    </trkpt>
    <trkpt lat="27.926616" lon="-15.548705">
    <time>1971-01-13T12:38:28Z</time>
  <cmt>extensions = 1.05</cmt>
    </trkpt>
    <trkpt lat="27.926791" lon="-15.54862">
    <time>1971-01-13T12:38:47Z</time>
  <cmt>extensions = 1.06</cmt>
    </trkpt>
    <trkpt lat="27.926989" lon="-15.548535">
    <time>1971-01-13T12:39:08Z</time>
  <cmt>extensions = 1.12</cmt>
    </trkpt>
    <trkpt lat="27.927112" lon="-15.548358">
    <time>1971-01-13T12:39:28Z</time>
  <cmt>extensions = 1.11</cmt>
    </trkpt>
    <trkpt lat="27.927109" lon="-15.548359">
    <time>1971-01-13T12:39:28Z</time>
  <cmt>extensions = 0.01</cmt>
    </trkpt>
    <trkpt lat="27.927131" lon="-15.548368">
    <time>1971-01-13T12:39:31Z</time>
  <cmt>extensions = 0.01</cmt>
    </trkpt>
    <trkpt lat="27.927163" lon="-15.548455">
    <time>1971-01-13T12:39:39Z</time>
  <cmt>extensions = 1.32</cmt>
    </trkpt>
    <trkpt lat="27.927181" lon="-15.548544">
    <time>1971-01-13T12:39:47Z</time>
  <cmt>extensions = 2.25</cmt>
    </trkpt>
    <trkpt lat="27.927178" lon="-15.548583">
    <time>1971-01-13T12:39:51Z</time>
  <cmt>extensions = 1.28</cmt>
    </trkpt>
    <trkpt lat="27.927132" lon="-15.548795">
    <time>1971-01-13T12:40:10Z</time>
  <cmt>extensions = 1.34</cmt>
    </trkpt>
    <trkpt lat="27.927189" lon="-15.548957">
    <time>1971-01-13T12:40:25Z</time>
  <cmt>extensions = 0.95</cmt>
    </trkpt>
    <trkpt lat="27.927197" lon="-15.548996">
    <time>1971-01-13T12:40:29Z</time>
  <cmt>extensions = 0.15</cmt>
    </trkpt>
    <trkpt lat="27.927199" lon="-15.548999">
    <time>1971-01-13T12:40:29Z</time>
  <cmt>extensions = 0.12</cmt>
    </trkpt>
    <trkpt lat="27.927267" lon="-15.549161">
    <time>1971-01-13T12:40:45Z</time>
  <cmt>extensions = 1.18</cmt>
    </trkpt>
    <trkpt lat="27.92729" lon="-15.549263">
    <time>1971-01-13T12:40:54Z</time>
  <cmt>extensions = 1.29</cmt>
    </trkpt>
    <trkpt lat="27.927292" lon="-15.549396">
    <time>1971-01-13T12:41:06Z</time>
  <cmt>extensions = 0.65</cmt>
    </trkpt>
    <trkpt lat="27.927302" lon="-15.549551">
    <time>1971-01-13T12:41:20Z</time>
  <cmt>extensions = 0.32</cmt>
    </trkpt>
    <trkpt lat="27.927243" lon="-15.549687">
    <time>1971-01-13T12:41:33Z</time>
  <cmt>extensions = 1.15</cmt>
    </trkpt>
    <trkpt lat="27.927149" lon="-15.549872">
    <time>1971-01-13T12:41:52Z</time>
  <cmt>extensions = 1.17</cmt>
    </trkpt>
    <trkpt lat="27.927051" lon="-15.550034">
    <time>1971-01-13T12:42:09Z</time>
  <cmt>extensions = 1.07</cmt>
    </trkpt>
    <trkpt lat="27.927026" lon="-15.55006">
    <time>1971-01-13T12:42:13Z</time>
  <cmt>extensions = 0.05</cmt>
    </trkpt>
    <trkpt lat="27.926955" lon="-15.550186">
    <time>1971-01-13T12:42:26Z</time>
  <cmt>extensions = 0.54</cmt>
    </trkpt>
    <trkpt lat="27.926846" lon="-15.550378">
    <time>1971-01-13T12:42:46Z</time>
  <cmt>extensions = 1.07</cmt>
    </trkpt>
    <trkpt lat="27.926788" lon="-15.550464">
    <time>1971-01-13T12:42:56Z</time>
  <cmt>extensions = 0.43</cmt>
    </trkpt>
    <trkpt lat="27.926685" lon="-15.550573">
    <time>1971-01-13T12:43:10Z</time>
  <cmt>extensions = 0.35</cmt>
    </trkpt>
    <trkpt lat="27.926681" lon="-15.550602">
    <time>1971-01-13T12:43:12Z</time>
  <cmt>extensions = 0.13</cmt>
    </trkpt>
    <trkpt lat="27.926539" lon="-15.55075">
    <time>1971-01-13T12:43:32Z</time>
  <cmt>extensions = 0.74</cmt>
    </trkpt>
    <trkpt lat="27.926438" lon="-15.55083">
    <time>1971-01-13T12:43:44Z</time>
  <cmt>extensions = 1.52</cmt>
    </trkpt>
    <trkpt lat="27.926226" lon="-15.550664">
    <time>1971-01-13T12:44:10Z</time>
  <cmt>extensions = 0.05</cmt>
    </trkpt>
    <trkpt lat="27.926031" lon="-15.550577">
    <time>1971-01-13T12:44:31Z</time>
  <cmt>extensions = 1.30</cmt>
    </trkpt>
    <trkpt lat="27.925981" lon="-15.55057">
    <time>1971-01-13T12:44:36Z</time>
  <cmt>extensions = 1.40</cmt>
    </trkpt>
    <trkpt lat="27.92582" lon="-15.550629">
    <time>1971-01-13T12:44:52Z</time>
  <cmt>extensions = 1.45</cmt>
    </trkpt>
    <trkpt lat="27.925641" lon="-15.550738">
    <time>1971-01-13T12:45:13Z</time>
  <cmt>extensions = 1.41</cmt>
    </trkpt>
    <trkpt lat="27.925485" lon="-15.550856">
    <time>1971-01-13T12:45:31Z</time>
  <cmt>extensions = 1.74</cmt>
    </trkpt>
    <trkpt lat="27.925343" lon="-15.551075">
    <time>1971-01-13T12:45:56Z</time>
  <cmt>extensions = 1.67</cmt>
    </trkpt>
    <trkpt lat="27.925231" lon="-15.551286">
    <time>1971-01-13T12:46:17Z</time>
  <cmt>extensions = 1.51</cmt>
    </trkpt>
    <trkpt lat="27.925149" lon="-15.5515">
    <time>1971-01-13T12:46:38Z</time>
  <cmt>extensions = 1.64</cmt>
    </trkpt>
    <trkpt lat="27.924979" lon="-15.551677">
    <time>1971-01-13T12:47:01Z</time>
  <cmt>extensions = 1.71</cmt>
    </trkpt>
    <trkpt lat="27.924857" lon="-15.551852">
    <time>1971-01-13T12:47:21Z</time>
  <cmt>extensions = 1.57</cmt>
    </trkpt>
    <trkpt lat="27.92477" lon="-15.552034">
    <time>1971-01-13T12:47:39Z</time>
  <cmt>extensions = 1.57</cmt>
    </trkpt>
    <trkpt lat="27.924682" lon="-15.55223">
    <time>1971-01-13T12:47:58Z</time>
  <cmt>extensions = 1.80</cmt>
    </trkpt>
    <trkpt lat="27.924649" lon="-15.552429">
    <time>1971-01-13T12:48:16Z</time>
  <cmt>extensions = 1.66</cmt>
    </trkpt>
    <trkpt lat="27.924584" lon="-15.552412">
    <time>1971-01-13T12:48:23Z</time>
  <cmt>extensions = 0.53</cmt>
    </trkpt>
    <trkpt lat="27.924608" lon="-15.552434">
    <time>1971-01-13T12:48:26Z</time>
  <cmt>extensions = 0.29</cmt>
    </trkpt>
    <trkpt lat="27.924666" lon="-15.552509">
    <time>1971-01-13T12:48:35Z</time>
  <cmt>extensions = 1.63</cmt>
    </trkpt>
    <trkpt lat="27.924683" lon="-15.552724">
    <time>1971-01-13T12:48:54Z</time>
  <cmt>extensions = 1.52</cmt>
    </trkpt>
    <trkpt lat="27.924697" lon="-15.552781">
    <time>1971-01-13T12:48:59Z</time>
  <cmt>extensions = 1.45</cmt>
    </trkpt>
    <trkpt lat="27.924721" lon="-15.55303">
    <time>1971-01-13T12:49:21Z</time>
  <cmt>extensions = 1.54</cmt>
    </trkpt>
    <trkpt lat="27.924738" lon="-15.553249">
    <time>1971-01-13T12:49:41Z</time>
  <cmt>extensions = 1.54</cmt>
    </trkpt>
    <trkpt lat="27.924745" lon="-15.553265">
    <time>1971-01-13T12:49:42Z</time>
  <cmt>extensions = 0.88</cmt>
    </trkpt>
    <trkpt lat="27.924734" lon="-15.553439">
    <time>1971-01-13T12:49:58Z</time>
  <cmt>extensions = 1.23</cmt>
    </trkpt>
    <trkpt lat="27.92471" lon="-15.553626">
    <time>1971-01-13T12:50:14Z</time>
  <cmt>extensions = 1.33</cmt>
    </trkpt>
    <trkpt lat="27.924721" lon="-15.553788">
    <time>1971-01-13T12:50:29Z</time>
  <cmt>extensions = 1.45</cmt>
    </trkpt>
    <trkpt lat="27.92477" lon="-15.55401">
    <time>1971-01-13T12:50:49Z</time>
  <cmt>extensions = 1.50</cmt>
    </trkpt>
    <trkpt lat="27.924802" lon="-15.55422">
    <time>1971-01-13T12:51:08Z</time>
  <cmt>extensions = 1.61</cmt>
    </trkpt>
    <trkpt lat="27.924827" lon="-15.554413">
    <time>1971-01-13T12:51:25Z</time>
  <cmt>extensions = 1.48</cmt>
    </trkpt>
    <trkpt lat="27.924816" lon="-15.554604">
    <time>1971-01-13T12:51:42Z</time>
  <cmt>extensions = 1.18</cmt>
    </trkpt>
    <trkpt lat="27.92481" lon="-15.554676">
    <time>1971-01-13T12:51:48Z</time>
  <cmt>extensions = 0.51</cmt>
    </trkpt>
    <trkpt lat="27.924747" lon="-15.554823">
    <time>1971-01-13T12:52:03Z</time>
  <cmt>extensions = 1.34</cmt>
    </trkpt>
    <trkpt lat="27.924696" lon="-15.554886">
    <time>1971-01-13T12:52:10Z</time>
  <cmt>extensions = 1.05</cmt>
    </trkpt>
    <trkpt lat="27.924491" lon="-15.554971">
    <time>1971-01-13T12:52:32Z</time>
  <cmt>extensions = 1.74</cmt>
    </trkpt>
    <trkpt lat="27.92434" lon="-15.554903">
    <time>1971-01-13T12:52:48Z</time>
  <cmt>extensions = 1.29</cmt>
    </trkpt>
    <trkpt lat="27.924249" lon="-15.554817">
    <time>1971-01-13T12:53:00Z</time>
  <cmt>extensions = 1.32</cmt>
    </trkpt>
    <trkpt lat="27.92422" lon="-15.5548">
    <time>1971-01-13T12:53:03Z</time>
  <cmt>extensions = 0.91</cmt>
    </trkpt>
    <trkpt lat="27.924177" lon="-15.554745">
    <time>1971-01-13T12:53:10Z</time>
  <cmt>extensions = 1.44</cmt>
    </trkpt>
    <trkpt lat="27.924052" lon="-15.554666">
    <time>1971-01-13T12:53:24Z</time>
  <cmt>extensions = 1.45</cmt>
    </trkpt>
    <trkpt lat="27.923996" lon="-15.55461">
    <time>1971-01-13T12:53:32Z</time>
  <cmt>extensions = 1.39</cmt>
    </trkpt>
    <trkpt lat="27.923932" lon="-15.554551">
    <time>1971-01-13T12:53:40Z</time>
  <cmt>extensions = 1.31</cmt>
    </trkpt>
    <trkpt lat="27.923884" lon="-15.554519">
    <time>1971-01-13T12:53:45Z</time>
  <cmt>extensions = 1.55</cmt>
    </trkpt>
    <trkpt lat="27.923809" lon="-15.554431">
    <time>1971-01-13T12:53:56Z</time>
  <cmt>extensions = 1.34</cmt>
    </trkpt>
    <trkpt lat="27.923661" lon="-15.55428">
    <time>1971-01-13T12:54:16Z</time>
  <cmt>extensions = 1.30</cmt>
    </trkpt>
    <trkpt lat="27.923506" lon="-15.554142">
    <time>1971-01-13T12:54:36Z</time>
  <cmt>extensions = 1.57</cmt>
    </trkpt>
    <trkpt lat="27.92341" lon="-15.553981">
    <time>1971-01-13T12:54:53Z</time>
  <cmt>extensions = 1.36</cmt>
    </trkpt>
    <trkpt lat="27.923226" lon="-15.553672">
    <time>1971-01-13T12:55:26Z</time>
  <cmt>extensions = 1.31</cmt>
    </trkpt>
    <trkpt lat="27.92317" lon="-15.553453">
    <time>1971-01-13T12:55:46Z</time>
  <cmt>extensions = 1.40</cmt>
    </trkpt>
    <trkpt lat="27.923136" lon="-15.553325">
    <time>1971-01-13T12:55:58Z</time>
  <cmt>extensions = 1.20</cmt>
    </trkpt>
    <trkpt lat="27.92308" lon="-15.55325">
    <time>1971-01-13T12:56:07Z</time>
  <cmt>extensions = 0.51</cmt>
    </trkpt>
    <trkpt lat="27.92283" lon="-15.552953">
    <time>1971-01-13T12:56:43Z</time>
  <cmt>extensions = 0.29</cmt>
    </trkpt>
    <trkpt lat="27.922777" lon="-15.5529">
    <time>1971-01-13T12:56:50Z</time>
  <cmt>extensions = 1.31</cmt>
    </trkpt>
    <trkpt lat="27.922696" lon="-15.552834">
    <time>1971-01-13T12:57:00Z</time>
  <cmt>extensions = 1.39</cmt>
    </trkpt>
    <trkpt lat="27.922582" lon="-15.552767">
    <time>1971-01-13T12:57:13Z</time>
  <cmt>extensions = 1.19</cmt>
    </trkpt>
    <trkpt lat="27.92252" lon="-15.552732">
    <time>1971-01-13T12:57:20Z</time>
  <cmt>extensions = 1.54</cmt>
    </trkpt>
    <trkpt lat="27.922338" lon="-15.552633">
    <time>1971-01-13T12:57:40Z</time>
  <cmt>extensions = 1.61</cmt>
    </trkpt>
    <trkpt lat="27.922262" lon="-15.552598">
    <time>1971-01-13T12:57:48Z</time>
  <cmt>extensions = 1.30</cmt>
    </trkpt>
    <trkpt lat="27.922188" lon="-15.552627">
    <time>1971-01-13T12:57:56Z</time>
  <cmt>extensions = 0.01</cmt>
    </trkpt>
    <trkpt lat="27.922177" lon="-15.552612">
    <time>1971-01-13T12:57:57Z</time>
  <cmt>extensions = 0.12</cmt>
    </trkpt>
    <trkpt lat="27.922192" lon="-15.552645">
    <time>1971-01-13T12:58:01Z</time>
  <cmt>extensions = 0.02</cmt>
    </trkpt>
    <trkpt lat="27.922159" lon="-15.552748">
    <time>1971-01-13T12:58:10Z</time>
  <cmt>extensions = 0.90</cmt>
    </trkpt>
    <trkpt lat="27.922144" lon="-15.552768">
    <time>1971-01-13T12:58:13Z</time>
  <cmt>extensions = 1.29</cmt>
    </trkpt>
    <trkpt lat="27.922087" lon="-15.552861">
    <time>1971-01-13T12:58:23Z</time>
  <cmt>extensions = 0.80</cmt>
    </trkpt>
    <trkpt lat="27.922122" lon="-15.552874">
    <time>1971-01-13T12:58:26Z</time>
  <cmt>extensions = 0.20</cmt>
    </trkpt>
    <trkpt lat="27.922027" lon="-15.55286">
    <time>1971-01-13T12:58:36Z</time>
  <cmt>extensions = 0.07</cmt>
    </trkpt>
    <trkpt lat="27.922013" lon="-15.552949">
    <time>1971-01-13T12:58:44Z</time>
  <cmt>extensions = 0.39</cmt>
    </trkpt>
    <trkpt lat="27.921911" lon="-15.553081">
    <time>1971-01-13T12:58:59Z</time>
  <cmt>extensions = 0.28</cmt>
    </trkpt>
    <trkpt lat="27.921775" lon="-15.553205">
    <time>1971-01-13T12:59:17Z</time>
  <cmt>extensions = 0.97</cmt>
    </trkpt>
    <trkpt lat="27.921762" lon="-15.553243">
    <time>1971-01-13T12:59:20Z</time>
  <cmt>extensions = 0.21</cmt>
    </trkpt>
    <trkpt lat="27.921546" lon="-15.553278">
    <time>1971-01-13T12:59:42Z</time>
  <cmt>extensions = 1.35</cmt>
    </trkpt>
    <trkpt lat="27.921496" lon="-15.553343">
    <time>1971-01-13T12:59:50Z</time>
  <cmt>extensions = 0.26</cmt>
    </trkpt>
    <trkpt lat="27.921486" lon="-15.55337">
    <time>1971-01-13T12:59:52Z</time>
  <cmt>extensions = 0.96</cmt>
    </trkpt>
    <trkpt lat="27.921482" lon="-15.553384">
    <time>1971-01-13T12:59:54Z</time>
  <cmt>extensions = 1.45</cmt>
    </trkpt>
    <trkpt lat="27.921428" lon="-15.553485">
    <time>1971-01-13T13:00:04Z</time>
  <cmt>extensions = 0.50</cmt>
    </trkpt>
    <trkpt lat="27.921232" lon="-15.553604">
    <time>1971-01-13T13:00:26Z</time>
  <cmt>extensions = 1.38</cmt>
    </trkpt>
    <trkpt lat="27.921186" lon="-15.553618">
    <time>1971-01-13T13:00:31Z</time>
  <cmt>extensions = 0.29</cmt>
    </trkpt>
    <trkpt lat="27.921135" lon="-15.553626">
    <time>1971-01-13T13:00:36Z</time>
  <cmt>extensions = 1.43</cmt>
    </trkpt>
    <trkpt lat="27.921042" lon="-15.553692">
    <time>1971-01-13T13:00:47Z</time>
  <cmt>extensions = 1.36</cmt>
    </trkpt>
    <trkpt lat="27.920915" lon="-15.553687">
    <time>1971-01-13T13:01:00Z</time>
  <cmt>extensions = 1.18</cmt>
    </trkpt>
    <trkpt lat="27.920899" lon="-15.553703">
    <time>1971-01-13T13:01:02Z</time>
  <cmt>extensions = 1.19</cmt>
    </trkpt>
    <trkpt lat="27.920817" lon="-15.553765">
    <time>1971-01-13T13:01:12Z</time>
  <cmt>extensions = 1.37</cmt>
    </trkpt>
    <trkpt lat="27.920823" lon="-15.553881">
    <time>1971-01-13T13:01:22Z</time>
  <cmt>extensions = 0.82</cmt>
    </trkpt>
    <trkpt lat="27.920888" lon="-15.553988">
    <time>1971-01-13T13:01:34Z</time>
  <cmt>extensions = 0.30</cmt>
    </trkpt>
    <trkpt lat="27.920885" lon="-15.55415">
    <time>1971-01-13T13:01:48Z</time>
  <cmt>extensions = 1.00</cmt>
    </trkpt>
    <trkpt lat="27.920868" lon="-15.554372">
    <time>1971-01-13T13:02:08Z</time>
  <cmt>extensions = 1.04</cmt>
    </trkpt>
    <trkpt lat="27.920939" lon="-15.554465">
    <time>1971-01-13T13:02:18Z</time>
  <cmt>extensions = 0.86</cmt>
    </trkpt>
    <trkpt lat="27.920946" lon="-15.554478">
    <time>1971-01-13T13:02:20Z</time>
  <cmt>extensions = 0.75</cmt>
    </trkpt>
    <trkpt lat="27.921028" lon="-15.554691">
    <time>1971-01-13T13:02:40Z</time>
  <cmt>extensions = 1.34</cmt>
    </trkpt>
    <trkpt lat="27.92111" lon="-15.554813">
    <time>1971-01-13T13:02:54Z</time>
  <cmt>extensions = 1.08</cmt>
    </trkpt>
    <trkpt lat="27.92122" lon="-15.554923">
    <time>1971-01-13T13:03:08Z</time>
  <cmt>extensions = 0.86</cmt>
    </trkpt>
    <trkpt lat="27.921264" lon="-15.555019">
    <time>1971-01-13T13:03:18Z</time>
  <cmt>extensions = 0.44</cmt>
    </trkpt>
    <trkpt lat="27.921284" lon="-15.555118">
    <time>1971-01-13T13:03:27Z</time>
  <cmt>extensions = 0.62</cmt>
    </trkpt>
    <trkpt lat="27.921322" lon="-15.555291">
    <time>1971-01-13T13:03:43Z</time>
  <cmt>extensions = 0.76</cmt>
    </trkpt>
    <trkpt lat="27.921458" lon="-15.555366">
    <time>1971-01-13T13:03:58Z</time>
  <cmt>extensions = 0.43</cmt>
    </trkpt>
    <trkpt lat="27.921612" lon="-15.555527">
    <time>1971-01-13T13:04:19Z</time>
  <cmt>extensions = 1.37</cmt>
    </trkpt>
    <trkpt lat="27.92163" lon="-15.555668">
    <time>1971-01-13T13:04:31Z</time>
  <cmt>extensions = 0.70</cmt>
    </trkpt>
    <trkpt lat="27.921631" lon="-15.555683">
    <time>1971-01-13T13:04:33Z</time>
  <cmt>extensions = 1.48</cmt>
    </trkpt>
    <trkpt lat="27.921577" lon="-15.555859">
    <time>1971-01-13T13:04:49Z</time>
  <cmt>extensions = 1.22</cmt>
    </trkpt>
    <trkpt lat="27.921556" lon="-15.556046">
    <time>1971-01-13T13:05:06Z</time>
  <cmt>extensions = 0.84</cmt>
    </trkpt>
    <trkpt lat="27.921614" lon="-15.556172">
    <time>1971-01-13T13:05:18Z</time>
  <cmt>extensions = 0.58</cmt>
    </trkpt>
    <trkpt lat="27.921612" lon="-15.556177">
    <time>1971-01-13T13:05:19Z</time>
  <cmt>extensions = 0.01</cmt>
    </trkpt>
    <trkpt lat="27.921604" lon="-15.556152">
    <time>1971-01-13T13:05:21Z</time>
  <cmt>extensions = 0.07</cmt>
    </trkpt>
    <trkpt lat="27.92161" lon="-15.556155">
    <time>1971-01-13T13:05:22Z</time>
  <cmt>extensions = 0.07</cmt>
    </trkpt>
    <trkpt lat="27.921698" lon="-15.556283">
    <time>1971-01-13T13:05:36Z</time>
  <cmt>extensions = 1.14</cmt>
    </trkpt>
    <trkpt lat="27.921679" lon="-15.556403">
    <time>1971-01-13T13:05:47Z</time>
  <cmt>extensions = 0.75</cmt>
    </trkpt>
    <trkpt lat="27.921632" lon="-15.556453">
    <time>1971-01-13T13:05:53Z</time>
  <cmt>extensions = 0.22</cmt>
    </trkpt>
    <trkpt lat="27.92156" lon="-15.55659">
    <time>1971-01-13T13:06:07Z</time>
  <cmt>extensions = 1.21</cmt>
    </trkpt>
    <trkpt lat="27.92144" lon="-15.556635">
    <time>1971-01-13T13:06:20Z</time>
  <cmt>extensions = 1.17</cmt>
    </trkpt>
    <trkpt lat="27.921426" lon="-15.556668">
    <time>1971-01-13T13:06:23Z</time>
  <cmt>extensions = 0.19</cmt>
    </trkpt>
    <trkpt lat="27.921512" lon="-15.556771">
    <time>1971-01-13T13:06:36Z</time>
  <cmt>extensions = 0.09</cmt>
    </trkpt>
    <trkpt lat="27.921481" lon="-15.556812">
    <time>1971-01-13T13:06:41Z</time>
  <cmt>extensions = 0.19</cmt>
    </trkpt>
    <trkpt lat="27.921559" lon="-15.556864">
    <time>1971-01-13T13:06:50Z</time>
  <cmt>extensions = 0.21</cmt>
    </trkpt>
    <trkpt lat="27.921698" lon="-15.556949">
    <time>1971-01-13T13:07:05Z</time>
  <cmt>extensions = 0.88</cmt>
    </trkpt>
    <trkpt lat="27.921814" lon="-15.557081">
    <time>1971-01-13T13:07:22Z</time>
  <cmt>extensions = 0.70</cmt>
    </trkpt>
    <trkpt lat="27.921919" lon="-15.557155">
    <time>1971-01-13T13:07:34Z</time>
  <cmt>extensions = 0.53</cmt>
    </trkpt>
    <trkpt lat="27.922019" lon="-15.557271">
    <time>1971-01-13T13:07:48Z</time>
  <cmt>extensions = 0.66</cmt>
    </trkpt>
    <trkpt lat="27.922071" lon="-15.557409">
    <time>1971-01-13T13:08:02Z</time>
  <cmt>extensions = 0.59</cmt>
    </trkpt>
    <trkpt lat="27.922109" lon="-15.55752">
    <time>1971-01-13T13:08:12Z</time>
  <cmt>extensions = 0.49</cmt>
    </trkpt>
    <trkpt lat="27.922115" lon="-15.55761">
    <time>1971-01-13T13:08:20Z</time>
  <cmt>extensions = 0.25</cmt>
    </trkpt>
    <trkpt lat="27.922117" lon="-15.557611">
    <time>1971-01-13T13:08:20Z</time>
  <cmt>extensions = 0.03</cmt>
    </trkpt>
    <trkpt lat="27.922117" lon="-15.557613">
    <time>1971-01-13T13:08:21Z</time>
  <cmt>extensions = 0.19</cmt>
    </trkpt>
    <trkpt lat="27.92209" lon="-15.557705">
    <time>1971-01-13T13:08:29Z</time>
  <cmt>extensions = 0.50</cmt>
    </trkpt>
    <trkpt lat="27.922013" lon="-15.557822">
    <time>1971-01-13T13:08:42Z</time>
  <cmt>extensions = 0.53</cmt>
    </trkpt>
    <trkpt lat="27.921977" lon="-15.557964">
    <time>1971-01-13T13:08:55Z</time>
  <cmt>extensions = 0.56</cmt>
    </trkpt>
    <trkpt lat="27.921916" lon="-15.558148">
    <time>1971-01-13T13:09:12Z</time>
  <cmt>extensions = 0.84</cmt>
    </trkpt>
    <trkpt lat="27.921954" lon="-15.558439">
    <time>1971-01-13T13:09:38Z</time>
  <cmt>extensions = 1.16</cmt>
    </trkpt>
    <trkpt lat="27.921965" lon="-15.558656">
    <time>1971-01-13T13:09:58Z</time>
  <cmt>extensions = 0.97</cmt>
    </trkpt>
    <trkpt lat="27.922047" lon="-15.558839">
    <time>1971-01-13T13:10:16Z</time>
  <cmt>extensions = 0.84</cmt>
    </trkpt>
    <trkpt lat="27.922072" lon="-15.559004">
    <time>1971-01-13T13:10:31Z</time>
  <cmt>extensions = 0.82</cmt>
    </trkpt>
    <trkpt lat="27.922088" lon="-15.559048">
    <time>1971-01-13T13:10:35Z</time>
  <cmt>extensions = 0.10</cmt>
    </trkpt>
    <trkpt lat="27.922188" lon="-15.559315">
    <time>1971-01-13T13:11:00Z</time>
  <cmt>extensions = 0.62</cmt>
    </trkpt>
    <trkpt lat="27.922083" lon="-15.559244">
    <time>1971-01-13T13:11:13Z</time>
  <cmt>extensions = 1.05</cmt>
    </trkpt>
    <trkpt lat="27.922155" lon="-15.559393">
    <time>1971-01-13T13:11:28Z</time>
  <cmt>extensions = 0.32</cmt>
    </trkpt>
    <trkpt lat="27.922112" lon="-15.559592">
    <time>1971-01-13T13:11:46Z</time>
  <cmt>extensions = 0.72</cmt>
    </trkpt>
    <trkpt lat="27.92207" lon="-15.559712">
    <time>1971-01-13T13:11:57Z</time>
  <cmt>extensions = 0.53</cmt>
    </trkpt>
    <trkpt lat="27.922008" lon="-15.559868">
    <time>1971-01-13T13:12:12Z</time>
  <cmt>extensions = 0.73</cmt>
    </trkpt>
    <trkpt lat="27.921843" lon="-15.559967">
    <time>1971-01-13T13:12:31Z</time>
  <cmt>extensions = 1.04</cmt>
    </trkpt>
    <trkpt lat="27.921765" lon="-15.560175">
    <time>1971-01-13T13:12:51Z</time>
  <cmt>extensions = 1.06</cmt>
    </trkpt>
    <trkpt lat="27.921724" lon="-15.560408">
    <time>1971-01-13T13:13:12Z</time>
  <cmt>extensions = 1.30</cmt>
    </trkpt>
    <trkpt lat="27.921668" lon="-15.560592">
    <time>1971-01-13T13:13:29Z</time>
  <cmt>extensions = 1.20</cmt>
    </trkpt>
    <trkpt lat="27.921566" lon="-15.560671">
    <time>1971-01-13T13:13:41Z</time>
  <cmt>extensions = 1.15</cmt>
    </trkpt>
    <trkpt lat="27.921541" lon="-15.560701">
    <time>1971-01-13T13:13:45Z</time>
  <cmt>extensions = 1.35</cmt>
    </trkpt>
    <trkpt lat="27.921487" lon="-15.560846">
    <time>1971-01-13T13:13:59Z</time>
  <cmt>extensions = 1.03</cmt>
    </trkpt>
    <trkpt lat="27.921474" lon="-15.560884">
    <time>1971-01-13T13:14:03Z</time>
  <cmt>extensions = 0.45</cmt>
    </trkpt>
    <trkpt lat="27.921413" lon="-15.561023">
    <time>1971-01-13T13:14:16Z</time>
  <cmt>extensions = 1.70</cmt>
    </trkpt>
    <trkpt lat="27.921352" lon="-15.561206">
    <time>1971-01-13T13:14:34Z</time>
  <cmt>extensions = 1.20</cmt>
    </trkpt>
    <trkpt lat="27.921318" lon="-15.561269">
    <time>1971-01-13T13:14:40Z</time>
  <cmt>extensions = 0.28</cmt>
    </trkpt>
    <trkpt lat="27.921219" lon="-15.56143">
    <time>1971-01-13T13:14:57Z</time>
  <cmt>extensions = 0.84</cmt>
    </trkpt>
    <trkpt lat="27.921125" lon="-15.561647">
    <time>1971-01-13T13:15:19Z</time>
  <cmt>extensions = 1.32</cmt>
    </trkpt>
    <trkpt lat="27.921111" lon="-15.561706">
    <time>1971-01-13T13:15:24Z</time>
  <cmt>extensions = 0.86</cmt>
    </trkpt>
    <trkpt lat="27.921108" lon="-15.561837">
    <time>1971-01-13T13:15:36Z</time>
  <cmt>extensions = 0.92</cmt>
    </trkpt>
    <trkpt lat="27.921029" lon="-15.562014">
    <time>1971-01-13T13:15:53Z</time>
  <cmt>extensions = 0.85</cmt>
    </trkpt>
    <trkpt lat="27.92099" lon="-15.56226">
    <time>1971-01-13T13:16:15Z</time>
  <cmt>extensions = 1.12</cmt>
    </trkpt>
    <trkpt lat="27.920863" lon="-15.562453">
    <time>1971-01-13T13:16:37Z</time>
  <cmt>extensions = 0.91</cmt>
    </trkpt>
    <trkpt lat="27.920786" lon="-15.562602">
    <time>1971-01-13T13:16:52Z</time>
  <cmt>extensions = 0.81</cmt>
    </trkpt>
    <trkpt lat="27.920722" lon="-15.56273">
    <time>1971-01-13T13:17:05Z</time>
  <cmt>extensions = 0.56</cmt>
    </trkpt>
    <trkpt lat="27.92063" lon="-15.562834">
    <time>1971-01-13T13:17:18Z</time>
  <cmt>extensions = 0.39</cmt>
    </trkpt>
    <trkpt lat="27.920672" lon="-15.562924">
    <time>1971-01-13T13:17:27Z</time>
  <cmt>extensions = 0.67</cmt>
    </trkpt>
    <trkpt lat="27.920574" lon="-15.563139">
    <time>1971-01-13T13:17:48Z</time>
  <cmt>extensions = 1.13</cmt>
    </trkpt>
    <trkpt lat="27.920575" lon="-15.563336">
    <time>1971-01-13T13:18:06Z</time>
  <cmt>extensions = 0.97</cmt>
    </trkpt>
    <trkpt lat="27.920562" lon="-15.563386">
    <time>1971-01-13T13:18:10Z</time>
  <cmt>extensions = 0.23</cmt>
    </trkpt>
    <trkpt lat="27.92058" lon="-15.563405">
    <time>1971-01-13T13:18:13Z</time>
  <cmt>extensions = 0.08</cmt>
    </trkpt>
    <trkpt lat="27.920591" lon="-15.563544">
    <time>1971-01-13T13:18:25Z</time>
  <cmt>extensions = 0.37</cmt>
    </trkpt>
    <trkpt lat="27.920533" lon="-15.563638">
    <time>1971-01-13T13:18:35Z</time>
  <cmt>extensions = 0.35</cmt>
    </trkpt>
    <trkpt lat="27.920519" lon="-15.563723">
    <time>1971-01-13T13:18:43Z</time>
  <cmt>extensions = 0.35</cmt>
    </trkpt>
    <trkpt lat="27.920535" lon="-15.563875">
    <time>1971-01-13T13:18:56Z</time>
  <cmt>extensions = 0.38</cmt>
    </trkpt>
    <trkpt lat="27.920543" lon="-15.564084">
    <time>1971-01-13T13:19:15Z</time>
  <cmt>extensions = 0.13</cmt>
    </trkpt>
    <trkpt lat="27.920571" lon="-15.564275">
    <time>1971-01-13T13:19:32Z</time>
  <cmt>extensions = 0.41</cmt>
    </trkpt>
    <trkpt lat="27.920754" lon="-15.564432">
    <time>1971-01-13T13:19:55Z</time>
  <cmt>extensions = 0.98</cmt>
    </trkpt>
    <trkpt lat="27.92078" lon="-15.564515">
    <time>1971-01-13T13:20:03Z</time>
  <cmt>extensions = 1.08</cmt>
    </trkpt>
    <trkpt lat="27.920839" lon="-15.564684">
    <time>1971-01-13T13:20:19Z</time>
  <cmt>extensions = 0.66</cmt>
    </trkpt>
    <trkpt lat="27.920852" lon="-15.564919">
    <time>1971-01-13T13:20:39Z</time>
  <cmt>extensions = 0.89</cmt>
    </trkpt>
    <trkpt lat="27.920884" lon="-15.56505">
    <time>1971-01-13T13:20:51Z</time>
  <cmt>extensions = 1.03</cmt>
    </trkpt>
    <trkpt lat="27.920835" lon="-15.565339">
    <time>1971-01-13T13:21:18Z</time>
  <cmt>extensions = 1.11</cmt>
    </trkpt>
    <trkpt lat="27.92094" lon="-15.565515">
    <time>1971-01-13T13:21:36Z</time>
  <cmt>extensions = 0.70</cmt>
    </trkpt>
    <trkpt lat="27.92098" lon="-15.565506">
    <time>1971-01-13T13:21:40Z</time>
  <cmt>extensions = 0.08</cmt>
    </trkpt>
    <trkpt lat="27.921016" lon="-15.565569">
    <time>1971-01-13T13:21:47Z</time>
  <cmt>extensions = 0.22</cmt>
    </trkpt>
    <trkpt lat="27.921073" lon="-15.565606">
    <time>1971-01-13T13:21:54Z</time>
  <cmt>extensions = 0.29</cmt>
    </trkpt>
    <trkpt lat="27.921096" lon="-15.565709">
    <time>1971-01-13T13:22:03Z</time>
  <cmt>extensions = 0.48</cmt>
    </trkpt>
    <trkpt lat="27.921062" lon="-15.565827">
    <time>1971-01-13T13:22:14Z</time>
  <cmt>extensions = 0.55</cmt>
    </trkpt>
    <trkpt lat="27.921018" lon="-15.565983">
    <time>1971-01-13T13:22:28Z</time>
  <cmt>extensions = 0.73</cmt>
    </trkpt>
    <trkpt lat="27.920972" lon="-15.566126">
    <time>1971-01-13T13:22:42Z</time>
  <cmt>extensions = 0.68</cmt>
    </trkpt>
    <trkpt lat="27.920939" lon="-15.566215">
    <time>1971-01-13T13:22:50Z</time>
  <cmt>extensions = 0.43</cmt>
    </trkpt>
    <trkpt lat="27.920873" lon="-15.56627">
    <time>1971-01-13T13:22:58Z</time>
  <cmt>extensions = 0.51</cmt>
    </trkpt>
    <trkpt lat="27.920842" lon="-15.566382">
    <time>1971-01-13T13:23:09Z</time>
  <cmt>extensions = 0.64</cmt>
    </trkpt>
    <trkpt lat="27.920798" lon="-15.566447">
    <time>1971-01-13T13:23:16Z</time>
  <cmt>extensions = 0.81</cmt>
    </trkpt>
    <trkpt lat="27.920782" lon="-15.566455">
    <time>1971-01-13T13:23:18Z</time>
  <cmt>extensions = 0.09</cmt>
    </trkpt>
    <trkpt lat="27.920651" lon="-15.566649">
    <time>1971-01-13T13:23:39Z</time>
  <cmt>extensions = 0.67</cmt>
    </trkpt>
    <trkpt lat="27.920495" lon="-15.566875">
    <time>1971-01-13T13:24:05Z</time>
  <cmt>extensions = 1.18</cmt>
    </trkpt>
    <trkpt lat="27.920281" lon="-15.567111">
    <time>1971-01-13T13:24:35Z</time>
  <cmt>extensions = 1.33</cmt>
    </trkpt>
    <trkpt lat="27.920266" lon="-15.567151">
    <time>1971-01-13T13:24:38Z</time>
  <cmt>extensions = 1.42</cmt>
    </trkpt>
    <trkpt lat="27.920304" lon="-15.567406">
    <time>1971-01-13T13:25:01Z</time>
  <cmt>extensions = 1.27</cmt>
    </trkpt>
    <trkpt lat="27.920311" lon="-15.567416">
    <time>1971-01-13T13:25:02Z</time>
  <cmt>extensions = 0.63</cmt>
    </trkpt>
    <trkpt lat="27.920326" lon="-15.567446">
    <time>1971-01-13T13:25:06Z</time>
  <cmt>extensions = 1.13</cmt>
    </trkpt>
    <trkpt lat="27.920385" lon="-15.567604">
    <time>1971-01-13T13:25:21Z</time>
  <cmt>extensions = 1.05</cmt>
    </trkpt>
    <trkpt lat="27.920425" lon="-15.567816">
    <time>1971-01-13T13:25:40Z</time>
  <cmt>extensions = 1.42</cmt>
    </trkpt>
    <trkpt lat="27.920476" lon="-15.567971">
    <time>1971-01-13T13:25:54Z</time>
  <cmt>extensions = 0.90</cmt>
    </trkpt>
    <trkpt lat="27.920478" lon="-15.568034">
    <time>1971-01-13T13:26:00Z</time>
  <cmt>extensions = 1.24</cmt>
    </trkpt>
    <trkpt lat="27.920592" lon="-15.568179">
    <time>1971-01-13T13:26:17Z</time>
  <cmt>extensions = 1.12</cmt>
    </trkpt>
    <trkpt lat="27.92077" lon="-15.56825">
    <time>1971-01-13T13:26:36Z</time>
  <cmt>extensions = 1.31</cmt>
    </trkpt>
    <trkpt lat="27.920854" lon="-15.568339">
    <time>1971-01-13T13:26:47Z</time>
  <cmt>extensions = 1.07</cmt>
    </trkpt>
    <trkpt lat="27.920909" lon="-15.568421">
    <time>1971-01-13T13:26:57Z</time>
  <cmt>extensions = 1.27</cmt>
    </trkpt>
    <trkpt lat="27.920991" lon="-15.56858">
    <time>1971-01-13T13:27:13Z</time>
  <cmt>extensions = 1.21</cmt>
    </trkpt>
    <trkpt lat="27.920996" lon="-15.568615">
    <time>1971-01-13T13:27:16Z</time>
  <cmt>extensions = 0.87</cmt>
    </trkpt>
    <trkpt lat="27.921061" lon="-15.568781">
    <time>1971-01-13T13:27:32Z</time>
  <cmt>extensions = 1.19</cmt>
    </trkpt>
    <trkpt lat="27.921137" lon="-15.568956">
    <time>1971-01-13T13:27:49Z</time>
  <cmt>extensions = 1.01</cmt>
    </trkpt>
    <trkpt lat="27.921187" lon="-15.569173">
    <time>1971-01-13T13:28:09Z</time>
  <cmt>extensions = 1.05</cmt>
    </trkpt>
    <trkpt lat="27.92129" lon="-15.569221">
    <time>1971-01-13T13:28:20Z</time>
  <cmt>extensions = 0.69</cmt>
    </trkpt>
    <trkpt lat="27.921378" lon="-15.56929">
    <time>1971-01-13T13:28:31Z</time>
  <cmt>extensions = 0.60</cmt>
    </trkpt>
    <trkpt lat="27.921433" lon="-15.569278">
    <time>1971-01-13T13:28:36Z</time>
  <cmt>extensions = 0.26</cmt>
    </trkpt>
    <trkpt lat="27.921502" lon="-15.569407">
    <time>1971-01-13T13:28:50Z</time>
  <cmt>extensions = 0.29</cmt>
    </trkpt>
    <trkpt lat="27.921507" lon="-15.569412">
    <time>1971-01-13T13:28:50Z</time>
  <cmt>extensions = 0.75</cmt>
    </trkpt>
    <trkpt lat="27.921659" lon="-15.569519">
    <time>1971-01-13T13:29:08Z</time>
  <cmt>extensions = 1.11</cmt>
    </trkpt>
    <trkpt lat="27.921684" lon="-15.569622">
    <time>1971-01-13T13:29:18Z</time>
  <cmt>extensions = 0.75</cmt>
    </trkpt>
    <trkpt lat="27.921813" lon="-15.569847">
    <time>1971-01-13T13:29:41Z</time>
  <cmt>extensions = 1.10</cmt>
    </trkpt>
    <trkpt lat="27.921817" lon="-15.569874">
    <time>1971-01-13T13:29:44Z</time>
  <cmt>extensions = 1.35</cmt>
    </trkpt>
    <trkpt lat="27.921921" lon="-15.570035">
    <time>1971-01-13T13:30:01Z</time>
  <cmt>extensions = 1.40</cmt>
    </trkpt>
    <trkpt lat="27.921951" lon="-15.570156">
    <time>1971-01-13T13:30:13Z</time>
  <cmt>extensions = 1.24</cmt>
    </trkpt>
    <trkpt lat="27.922041" lon="-15.570309">
    <time>1971-01-13T13:30:29Z</time>
  <cmt>extensions = 1.06</cmt>
    </trkpt>
    <trkpt lat="27.922056" lon="-15.570444">
    <time>1971-01-13T13:30:41Z</time>
  <cmt>extensions = 1.91</cmt>
    </trkpt>
    <trkpt lat="27.922143" lon="-15.570506">
    <time>1971-01-13T13:30:51Z</time>
  <cmt>extensions = 1.63</cmt>
    </trkpt>
    <trkpt lat="27.922222" lon="-15.57061">
    <time>1971-01-13T13:31:03Z</time>
  <cmt>extensions = 1.35</cmt>
    </trkpt>
    <trkpt lat="27.922318" lon="-15.570652">
    <time>1971-01-13T13:31:13Z</time>
  <cmt>extensions = 1.64</cmt>
    </trkpt>
    <trkpt lat="27.922331" lon="-15.570681">
    <time>1971-01-13T13:31:16Z</time>
  <cmt>extensions = 1.60</cmt>
    </trkpt>
    <trkpt lat="27.922349" lon="-15.570754">
    <time>1971-01-13T13:31:23Z</time>
  <cmt>extensions = 1.24</cmt>
    </trkpt>
    <trkpt lat="27.922446" lon="-15.570844">
    <time>1971-01-13T13:31:36Z</time>
  <cmt>extensions = 1.40</cmt>
    </trkpt>
    <trkpt lat="27.922602" lon="-15.570974">
    <time>1971-01-13T13:31:55Z</time>
  <cmt>extensions = 1.54</cmt>
    </trkpt>
    <trkpt lat="27.922703" lon="-15.571085">
    <time>1971-01-13T13:32:09Z</time>
  <cmt>extensions = 1.21</cmt>
    </trkpt>
    <trkpt lat="27.922812" lon="-15.571228">
    <time>1971-01-13T13:32:26Z</time>
  <cmt>extensions = 1.43</cmt>
    </trkpt>
    <trkpt lat="27.922849" lon="-15.571301">
    <time>1971-01-13T13:32:33Z</time>
  <cmt>extensions = 1.38</cmt>
    </trkpt>
    <trkpt lat="27.922893" lon="-15.571324">
    <time>1971-01-13T13:32:38Z</time>
  <cmt>extensions = 0.77</cmt>
    </trkpt>
    <trkpt lat="27.922948" lon="-15.571297">
    <time>1971-01-13T13:32:44Z</time>
  <cmt>extensions = 3.34</cmt>
    </trkpt>
    <trkpt lat="27.923057" lon="-15.571399">
    <time>1971-01-13T13:32:58Z</time>
  <cmt>extensions = 1.12</cmt>
    </trkpt>
    <trkpt lat="27.923101" lon="-15.571555">
    <time>1971-01-13T13:33:12Z</time>
  <cmt>extensions = 1.07</cmt>
    </trkpt>
    <trkpt lat="27.923127" lon="-15.57168">
    <time>1971-01-13T13:33:24Z</time>
  <cmt>extensions = 0.53</cmt>
    </trkpt>
    <trkpt lat="27.923249" lon="-15.571742">
    <time>1971-01-13T13:33:37Z</time>
  <cmt>extensions = 0.78</cmt>
    </trkpt>
    <trkpt lat="27.923214" lon="-15.571674">
    <time>1971-01-13T13:33:44Z</time>
  <cmt>extensions = 0.15</cmt>
    </trkpt>
    <trkpt lat="27.923237" lon="-15.571722">
    <time>1971-01-13T13:33:49Z</time>
  <cmt>extensions = 0.28</cmt>
    </trkpt>
    <trkpt lat="27.92323" lon="-15.571726">
    <time>1971-01-13T13:33:50Z</time>
  <cmt>extensions = 0.02</cmt>
    </trkpt>
    <trkpt lat="27.923272" lon="-15.571725">
    <time>1971-01-13T13:33:54Z</time>
  <cmt>extensions = 0.23</cmt>
    </trkpt>
    <trkpt lat="27.923335" lon="-15.571843">
    <time>1971-01-13T13:34:06Z</time>
  <cmt>extensions = 0.05</cmt>
    </trkpt>
    <trkpt lat="27.923432" lon="-15.571986">
    <time>1971-01-13T13:34:22Z</time>
  <cmt>extensions = 1.27</cmt>
    </trkpt>
    <trkpt lat="27.923447" lon="-15.572034">
    <time>1971-01-13T13:34:26Z</time>
  <cmt>extensions = 0.25</cmt>
    </trkpt>
    <trkpt lat="27.923465" lon="-15.572054">
    <time>1971-01-13T13:34:29Z</time>
  <cmt>extensions = 0.05</cmt>
    </trkpt>
    <trkpt lat="27.923465" lon="-15.572077">
    <time>1971-01-13T13:34:31Z</time>
  <cmt>extensions = 0.21</cmt>
    </trkpt>
    <trkpt lat="27.923487" lon="-15.572266">
    <time>1971-01-13T13:34:48Z</time>
  <cmt>extensions = 1.17</cmt>
    </trkpt>
    <trkpt lat="27.923536" lon="-15.572335">
    <time>1971-01-13T13:34:56Z</time>
  <cmt>extensions = 0.58</cmt>
    </trkpt>
    <trkpt lat="27.923641" lon="-15.572274">
    <time>1971-01-13T13:35:07Z</time>
  <cmt>extensions = 0.73</cmt>
    </trkpt>
    <trkpt lat="27.923735" lon="-15.572153">
    <time>1971-01-13T13:35:22Z</time>
  <cmt>extensions = 1.13</cmt>
    </trkpt>
    <trkpt lat="27.923834" lon="-15.572142">
    <time>1971-01-13T13:35:32Z</time>
  <cmt>extensions = 0.79</cmt>
    </trkpt>
    <trkpt lat="27.923902" lon="-15.572114">
    <time>1971-01-13T13:35:39Z</time>
  <cmt>extensions = 0.58</cmt>
    </trkpt>
    <trkpt lat="27.924055" lon="-15.57207">
    <time>1971-01-13T13:35:55Z</time>
  <cmt>extensions = 0.92</cmt>
    </trkpt>
    <trkpt lat="27.924037" lon="-15.572123">
    <time>1971-01-13T13:36:00Z</time>
  <cmt>extensions = 0.43</cmt>
    </trkpt>
    <trkpt lat="27.924041" lon="-15.572209">
    <time>1971-01-13T13:36:07Z</time>
  <cmt>extensions = 0.56</cmt>
    </trkpt>
    <trkpt lat="27.924082" lon="-15.572188">
    <time>1971-01-13T13:36:12Z</time>
  <cmt>extensions = 0.25</cmt>
    </trkpt>
    <trkpt lat="27.924234" lon="-15.572131">
    <time>1971-01-13T13:36:28Z</time>
  <cmt>extensions = 0.99</cmt>
    </trkpt>
    <trkpt lat="27.924345" lon="-15.572114">
    <time>1971-01-13T13:36:39Z</time>
  <cmt>extensions = 0.66</cmt>
    </trkpt>
    <trkpt lat="27.924485" lon="-15.57209">
    <time>1971-01-13T13:36:53Z</time>
  <cmt>extensions = 0.93</cmt>
    </trkpt>
    <trkpt lat="27.924546" lon="-15.572109">
    <time>1971-01-13T13:36:59Z</time>
  <cmt>extensions = 0.44</cmt>
    </trkpt>
    <trkpt lat="27.924674" lon="-15.572042">
    <time>1971-01-13T13:37:13Z</time>
  <cmt>extensions = 0.48</cmt>
    </trkpt>
    <trkpt lat="27.924655" lon="-15.572116">
    <time>1971-01-13T13:37:20Z</time>
  <cmt>extensions = 0.25</cmt>
    </trkpt>
    <trkpt lat="27.924665" lon="-15.57222">
    <time>1971-01-13T13:37:29Z</time>
  <cmt>extensions = 0.11</cmt>
    </trkpt>
    <trkpt lat="27.92461" lon="-15.572442">
    <time>1971-01-13T13:37:50Z</time>
  <cmt>extensions = 0.87</cmt>
    </trkpt>
    <trkpt lat="27.92467" lon="-15.572527">
    <time>1971-01-13T13:37:59Z</time>
  <cmt>extensions = 0.43</cmt>
    </trkpt>
    <trkpt lat="27.924708" lon="-15.572704">
    <time>1971-01-13T13:38:15Z</time>
  <cmt>extensions = 1.19</cmt>
    </trkpt>
    <trkpt lat="27.924725" lon="-15.572735">
    <time>1971-01-13T13:38:19Z</time>
  <cmt>extensions = 0.30</cmt>
    </trkpt>
    <trkpt lat="27.924869" lon="-15.57278">
    <time>1971-01-13T13:38:34Z</time>
  <cmt>extensions = 0.79</cmt>
    </trkpt>
    <trkpt lat="27.924893" lon="-15.57278">
    <time>1971-01-13T13:38:36Z</time>
  <cmt>extensions = 1.34</cmt>
    </trkpt>
    <trkpt lat="27.925041" lon="-15.57275">
    <time>1971-01-13T13:38:51Z</time>
  <cmt>extensions = 1.29</cmt>
    </trkpt>
    <trkpt lat="27.925173" lon="-15.572824">
    <time>1971-01-13T13:39:06Z</time>
  <cmt>extensions = 1.82</cmt>
    </trkpt>
    <trkpt lat="27.925242" lon="-15.572923">
    <time>1971-01-13T13:39:17Z</time>
  <cmt>extensions = 0.95</cmt>
    </trkpt>
    <trkpt lat="27.925311" lon="-15.573015">
    <time>1971-01-13T13:39:27Z</time>
  <cmt>extensions = 0.70</cmt>
    </trkpt>
    <trkpt lat="27.925387" lon="-15.573144">
    <time>1971-01-13T13:39:41Z</time>
  <cmt>extensions = 1.17</cmt>
    </trkpt>
    <trkpt lat="27.925455" lon="-15.573222">
    <time>1971-01-13T13:39:51Z</time>
  <cmt>extensions = 0.77</cmt>
    </trkpt>
    <trkpt lat="27.925452" lon="-15.57323">
    <time>1971-01-13T13:39:52Z</time>
  <cmt>extensions = 0.04</cmt>
    </trkpt>
  </trkseg>
</trk>
</gpx>
